sensor_id;sensor_type;location;lat;lon;timestamp;temperature;humidity
35920;DHT22;36160;53.370;-6.196;2023-01-15T00:01:04;3.10;99.90
35920;DHT22;36160;53.370;-6.196;2023-01-15T00:03:30;3.10;99.90
35920;DHT22;36160;53.370;-6.196;2023-01-15T00:06:01;3.10;99.90
35920;DHT22;36160;53.370;-6.196;2023-01-15T00:08:27;3.00;99.90
35920;DHT22;36160;53.370;-6.196;2023-01-15T00:10:53;3.10;99.90
35920;DHT22;36160;53.370;-6.196;2023-01-15T00:13:20;3.10;99.90
35920;DHT22;36160;53.370;-6.196;2023-01-15T00:15:46;3.20;99.90
35920;DHT22;36160;53.370;-6.196;2023-01-15T00:18:12;3.10;99.90
35920;DHT22;36160;53.370;-6.196;2023-01-15T00:20:37;3.10;99.90
35920;DHT22;36160;53.370;-6.196;2023-01-15T00:23:03;3.20;99.90
35920;DHT22;36160;53.370;-6.196;2023-01-15T00:25:29;3.10;99.90
35920;DHT22;36160;53.370;-6.196;2023-01-15T00:28:13;3.10;99.90
35920;DHT22;36160;53.370;-6.196;2023-01-15T00:30:40;3.20;99.90
35920;DHT22;36160;53.370;-6.196;2023-01-15T00:33:07;3.10;99.90
35920;DHT22;36160;53.370;-6.196;2023-01-15T00:35:33;3.10;99.90
35920;DHT22;36160;53.370;-6.196;2023-01-15T00:37:58;3.20;99.90
35920;DHT22;36160;53.370;-6.196;2023-01-15T00:40:24;3.10;99.90
35920;DHT22;36160;53.370;-6.196;2023-01-15T00:42:50;3.10;99.90
35920;DHT22;36160;53.370;-6.196;2023-01-15T00:45:16;3.20;99.90
35920;DHT22;36160;53.370;-6.196;2023-01-15T00:47:43;3.20;99.90
35920;DHT22;36160;53.370;-6.196;2023-01-15T00:50:12;3.30;99.90
35920;DHT22;36160;53.370;-6.196;2023-01-15T00:52:37;3.30;99.90
35920;DHT22;36160;53.370;-6.196;2023-01-15T00:55:04;3.20;99.90
35920;DHT22;36160;53.370;-6.196;2023-01-15T00:57:30;3.30;99.90
35920;DHT22;36160;53.370;-6.196;2023-01-15T00:59:56;3.20;99.90
35920;DHT22;36160;53.370;-6.196;2023-01-15T01:02:22;3.40;99.90
35920;DHT22;36160;53.370;-6.196;2023-01-15T01:04:48;3.50;99.90
35920;DHT22;36160;53.370;-6.196;2023-01-15T01:07:14;3.50;99.90
35920;DHT22;36160;53.370;-6.196;2023-01-15T01:09:39;3.50;99.90
35920;DHT22;36160;53.370;-6.196;2023-01-15T01:12:05;3.50;99.90
35920;DHT22;36160;53.370;-6.196;2023-01-15T01:14:31;3.60;99.90
35920;DHT22;36160;53.370;-6.196;2023-01-15T01:16:57;3.70;99.90
35920;DHT22;36160;53.370;-6.196;2023-01-15T01:19:24;3.80;99.90
35920;DHT22;36160;53.370;-6.196;2023-01-15T01:21:50;3.80;99.90
35920;DHT22;36160;53.370;-6.196;2023-01-15T01:24:19;3.90;99.90
35920;DHT22;36160;53.370;-6.196;2023-01-15T01:26:46;4.00;99.90
35920;DHT22;36160;53.370;-6.196;2023-01-15T01:29:22;4.00;99.90
35920;DHT22;36160;53.370;-6.196;2023-01-15T01:31:49;3.90;99.90
35920;DHT22;36160;53.370;-6.196;2023-01-15T01:34:15;4.00;99.90
35920;DHT22;36160;53.370;-6.196;2023-01-15T01:36:42;3.90;99.90
35920;DHT22;36160;53.370;-6.196;2023-01-15T01:39:13;4.00;99.90
35920;DHT22;36160;53.370;-6.196;2023-01-15T01:41:39;4.00;99.90
35920;DHT22;36160;53.370;-6.196;2023-01-15T01:44:53;4.00;99.90
35920;DHT22;36160;53.370;-6.196;2023-01-15T01:46:51;4.00;99.90
35920;DHT22;36160;53.370;-6.196;2023-01-15T01:49:17;4.00;99.90
35920;DHT22;36160;53.370;-6.196;2023-01-15T01:51:47;4.10;99.90
35920;DHT22;36160;53.370;-6.196;2023-01-15T01:54:16;3.90;99.90
35920;DHT22;36160;53.370;-6.196;2023-01-15T01:56:43;4.00;99.90
35920;DHT22;36160;53.370;-6.196;2023-01-15T01:59:10;3.90;99.90
35920;DHT22;36160;53.370;-6.196;2023-01-15T02:01:36;4.00;99.90
35920;DHT22;36160;53.370;-6.196;2023-01-15T02:04:05;4.00;99.90
35920;DHT22;36160;53.370;-6.196;2023-01-15T02:06:32;3.90;99.90
35920;DHT22;36160;53.370;-6.196;2023-01-15T02:08:58;4.00;99.90
35920;DHT22;36160;53.370;-6.196;2023-01-15T02:11:24;4.00;99.90
35920;DHT22;36160;53.370;-6.196;2023-01-15T02:14:24;3.90;99.90
35920;DHT22;36160;53.370;-6.196;2023-01-15T02:16:55;4.00;99.90
35920;DHT22;36160;53.370;-6.196;2023-01-15T02:19:28;3.90;99.90
35920;DHT22;36160;53.370;-6.196;2023-01-15T02:25:18;3.90;99.90
35920;DHT22;36160;53.370;-6.196;2023-01-15T02:27:54;3.80;99.90
35920;DHT22;36160;53.370;-6.196;2023-01-15T02:30:27;3.90;99.90
35920;DHT22;36160;53.370;-6.196;2023-01-15T02:32:55;3.80;99.90
35920;DHT22;36160;53.370;-6.196;2023-01-15T02:35:37;3.80;99.90
35920;DHT22;36160;53.370;-6.196;2023-01-15T02:38:07;3.80;99.90
35920;DHT22;36160;53.370;-6.196;2023-01-15T02:40:36;3.80;99.90
35920;DHT22;36160;53.370;-6.196;2023-01-15T02:43:04;3.90;99.90
35920;DHT22;36160;53.370;-6.196;2023-01-15T02:45:33;3.90;99.90
35920;DHT22;36160;53.370;-6.196;2023-01-15T02:48:15;4.00;99.90
35920;DHT22;36160;53.370;-6.196;2023-01-15T02:50:47;3.90;99.90
35920;DHT22;36160;53.370;-6.196;2023-01-15T02:53:17;3.90;99.90
35920;DHT22;36160;53.370;-6.196;2023-01-15T02:55:49;3.90;99.90
35920;DHT22;36160;53.370;-6.196;2023-01-15T02:58:22;3.90;99.90
35920;DHT22;36160;53.370;-6.196;2023-01-15T03:00:51;4.00;99.90
35920;DHT22;36160;53.370;-6.196;2023-01-15T03:03:27;4.00;99.90
35920;DHT22;36160;53.370;-6.196;2023-01-15T03:05:57;4.10;99.90
35920;DHT22;36160;53.370;-6.196;2023-01-15T03:08:24;4.10;99.90
35920;DHT22;36160;53.370;-6.196;2023-01-15T03:11:11;4.20;99.90
35920;DHT22;36160;53.370;-6.196;2023-01-15T03:16:21;4.20;99.90
35920;DHT22;36160;53.370;-6.196;2023-01-15T03:27:00;4.30;99.90
35920;DHT22;36160;53.370;-6.196;2023-01-15T03:29:30;4.30;99.90
35920;DHT22;36160;53.370;-6.196;2023-01-15T03:31:58;4.30;99.90
35920;DHT22;36160;53.370;-6.196;2023-01-15T03:34:27;4.20;99.90
35920;DHT22;36160;53.370;-6.196;2023-01-15T03:36:55;4.30;99.90
35920;DHT22;36160;53.370;-6.196;2023-01-15T03:39:21;4.20;99.90
35920;DHT22;36160;53.370;-6.196;2023-01-15T03:55:19;4.30;99.90
35920;DHT22;36160;53.370;-6.196;2023-01-15T03:57:58;4.30;99.90
35920;DHT22;36160;53.370;-6.196;2023-01-15T04:00:27;4.40;99.90
35920;DHT22;36160;53.370;-6.196;2023-01-15T04:02:56;4.40;99.90
35920;DHT22;36160;53.370;-6.196;2023-01-15T04:05:25;4.40;99.90
35920;DHT22;36160;53.370;-6.196;2023-01-15T04:07:53;4.40;99.90
35920;DHT22;36160;53.370;-6.196;2023-01-15T04:10:20;4.40;99.90
35920;DHT22;36160;53.370;-6.196;2023-01-15T04:12:45;4.40;99.90
35920;DHT22;36160;53.370;-6.196;2023-01-15T04:15:12;4.30;99.90
35920;DHT22;36160;53.370;-6.196;2023-01-15T04:17:38;4.30;99.90
35920;DHT22;36160;53.370;-6.196;2023-01-15T04:20:05;4.50;99.90
35920;DHT22;36160;53.370;-6.196;2023-01-15T04:22:31;4.40;99.90
35920;DHT22;36160;53.370;-6.196;2023-01-15T04:24:57;4.50;99.90
35920;DHT22;36160;53.370;-6.196;2023-01-15T04:27:23;4.50;99.90
35920;DHT22;36160;53.370;-6.196;2023-01-15T04:29:51;4.60;99.90
35920;DHT22;36160;53.370;-6.196;2023-01-15T04:32:16;4.50;99.90
35920;DHT22;36160;53.370;-6.196;2023-01-15T04:34:42;4.60;99.90
35920;DHT22;36160;53.370;-6.196;2023-01-15T04:37:08;4.60;99.90
35920;DHT22;36160;53.370;-6.196;2023-01-15T04:39:33;4.50;99.90
35920;DHT22;36160;53.370;-6.196;2023-01-15T04:41:59;4.50;99.90
35920;DHT22;36160;53.370;-6.196;2023-01-15T04:44:48;4.50;99.90
35920;DHT22;36160;53.370;-6.196;2023-01-15T04:47:13;4.50;99.90
35920;DHT22;36160;53.370;-6.196;2023-01-15T04:49:39;4.50;99.90
35920;DHT22;36160;53.370;-6.196;2023-01-15T04:52:05;4.60;99.90
35920;DHT22;36160;53.370;-6.196;2023-01-15T04:54:31;4.60;99.90
35920;DHT22;36160;53.370;-6.196;2023-01-15T04:56:56;4.50;99.90
35920;DHT22;36160;53.370;-6.196;2023-01-15T04:59:24;4.60;99.90
35920;DHT22;36160;53.370;-6.196;2023-01-15T05:01:51;4.60;99.90
35920;DHT22;36160;53.370;-6.196;2023-01-15T05:04:17;4.60;99.90
35920;DHT22;36160;53.370;-6.196;2023-01-15T05:06:43;4.60;99.90
35920;DHT22;36160;53.370;-6.196;2023-01-15T05:09:09;4.60;99.90
35920;DHT22;36160;53.370;-6.196;2023-01-15T05:11:37;4.60;99.90
35920;DHT22;36160;53.370;-6.196;2023-01-15T05:14:03;4.60;99.90
35920;DHT22;36160;53.370;-6.196;2023-01-15T05:16:29;4.60;99.90
35920;DHT22;36160;53.370;-6.196;2023-01-15T05:19:00;4.60;99.90
35920;DHT22;36160;53.370;-6.196;2023-01-15T05:21:32;4.50;99.90
35920;DHT22;36160;53.370;-6.196;2023-01-15T05:23:59;4.50;99.90
35920;DHT22;36160;53.370;-6.196;2023-01-15T05:26:27;4.50;99.90
35920;DHT22;36160;53.370;-6.196;2023-01-15T05:28:54;4.40;99.90
35920;DHT22;36160;53.370;-6.196;2023-01-15T05:31:23;4.50;99.90
35920;DHT22;36160;53.370;-6.196;2023-01-15T05:33:50;4.50;99.90
35920;DHT22;36160;53.370;-6.196;2023-01-15T05:36:18;4.50;99.90
35920;DHT22;36160;53.370;-6.196;2023-01-15T05:38:45;4.40;99.90
35920;DHT22;36160;53.370;-6.196;2023-01-15T05:41:14;4.50;99.90
35920;DHT22;36160;53.370;-6.196;2023-01-15T05:44:04;4.50;99.90
35920;DHT22;36160;53.370;-6.196;2023-01-15T05:46:33;4.50;99.90
35920;DHT22;36160;53.370;-6.196;2023-01-15T05:49:04;4.50;99.90
35920;DHT22;36160;53.370;-6.196;2023-01-15T05:51:30;4.50;99.90
35920;DHT22;36160;53.370;-6.196;2023-01-15T05:53:57;4.50;99.90
35920;DHT22;36160;53.370;-6.196;2023-01-15T05:56:23;4.50;99.90
35920;DHT22;36160;53.370;-6.196;2023-01-15T05:58:49;4.60;99.90
35920;DHT22;36160;53.370;-6.196;2023-01-15T06:01:15;4.50;99.90
35920;DHT22;36160;53.370;-6.196;2023-01-15T06:03:41;4.60;99.90
35920;DHT22;36160;53.370;-6.196;2023-01-15T06:06:13;4.60;99.90
35920;DHT22;36160;53.370;-6.196;2023-01-15T06:08:40;4.50;99.90
35920;DHT22;36160;53.370;-6.196;2023-01-15T06:11:06;4.60;99.90
35920;DHT22;36160;53.370;-6.196;2023-01-15T06:13:32;4.50;99.90
35920;DHT22;36160;53.370;-6.196;2023-01-15T06:16:01;4.60;99.90
35920;DHT22;36160;53.370;-6.196;2023-01-15T06:18:26;4.60;99.90
35920;DHT22;36160;53.370;-6.196;2023-01-15T06:20:52;4.70;99.90
35920;DHT22;36160;53.370;-6.196;2023-01-15T06:23:18;4.60;99.90
35920;DHT22;36160;53.370;-6.196;2023-01-15T06:25:44;4.70;99.90
35920;DHT22;36160;53.370;-6.196;2023-01-15T06:28:10;4.70;99.90
35920;DHT22;36160;53.370;-6.196;2023-01-15T06:30:39;4.70;99.90
35920;DHT22;36160;53.370;-6.196;2023-01-15T06:33:05;4.60;99.90
35920;DHT22;36160;53.370;-6.196;2023-01-15T06:35:32;4.70;99.90
35920;DHT22;36160;53.370;-6.196;2023-01-15T06:37:58;4.60;99.90
35920;DHT22;36160;53.370;-6.196;2023-01-15T06:40:23;4.60;99.90
35920;DHT22;36160;53.370;-6.196;2023-01-15T06:42:51;4.60;99.90
35920;DHT22;36160;53.370;-6.196;2023-01-15T06:45:38;4.60;99.90
35920;DHT22;36160;53.370;-6.196;2023-01-15T06:48:23;4.60;99.90
35920;DHT22;36160;53.370;-6.196;2023-01-15T06:50:49;4.60;99.90
35920;DHT22;36160;53.370;-6.196;2023-01-15T06:53:15;4.40;99.90
35920;DHT22;36160;53.370;-6.196;2023-01-15T06:55:40;4.50;99.90
35920;DHT22;36160;53.370;-6.196;2023-01-15T06:58:06;4.50;99.90
35920;DHT22;36160;53.370;-6.196;2023-01-15T07:00:32;4.40;99.90
35920;DHT22;36160;53.370;-6.196;2023-01-15T07:03:01;4.50;99.90
35920;DHT22;36160;53.370;-6.196;2023-01-15T07:05:27;4.40;99.90
35920;DHT22;36160;53.370;-6.196;2023-01-15T07:07:53;4.50;99.90
35920;DHT22;36160;53.370;-6.196;2023-01-15T07:10:19;4.40;99.90
35920;DHT22;36160;53.370;-6.196;2023-01-15T07:12:44;4.30;99.90
35920;DHT22;36160;53.370;-6.196;2023-01-15T07:15:10;4.40;99.90
35920;DHT22;36160;53.370;-6.196;2023-01-15T07:17:36;4.30;99.90
35920;DHT22;36160;53.370;-6.196;2023-01-15T07:20:02;4.40;99.90
35920;DHT22;36160;53.370;-6.196;2023-01-15T07:22:28;4.40;99.90
35920;DHT22;36160;53.370;-6.196;2023-01-15T07:24:54;4.40;99.90
35920;DHT22;36160;53.370;-6.196;2023-01-15T07:27:20;4.30;99.90
35920;DHT22;36160;53.370;-6.196;2023-01-15T07:29:46;4.30;99.90
35920;DHT22;36160;53.370;-6.196;2023-01-15T07:32:12;4.30;99.90
35920;DHT22;36160;53.370;-6.196;2023-01-15T07:34:38;4.20;99.90
35920;DHT22;36160;53.370;-6.196;2023-01-15T07:37:03;4.20;99.90
35920;DHT22;36160;53.370;-6.196;2023-01-15T07:39:29;4.30;99.90
35920;DHT22;36160;53.370;-6.196;2023-01-15T07:41:56;4.30;99.90
35920;DHT22;36160;53.370;-6.196;2023-01-15T07:44:40;4.30;99.90
35920;DHT22;36160;53.370;-6.196;2023-01-15T07:47:25;4.30;99.90
35920;DHT22;36160;53.370;-6.196;2023-01-15T07:50:15;4.30;99.90
35920;DHT22;36160;53.370;-6.196;2023-01-15T07:52:41;4.30;99.90
35920;DHT22;36160;53.370;-6.196;2023-01-15T07:55:07;4.20;99.90
35920;DHT22;36160;53.370;-6.196;2023-01-15T07:57:35;4.20;99.90
35920;DHT22;36160;53.370;-6.196;2023-01-15T08:00:02;4.30;99.90
35920;DHT22;36160;53.370;-6.196;2023-01-15T08:02:28;4.40;99.90
35920;DHT22;36160;53.370;-6.196;2023-01-15T08:04:54;4.30;99.90
35920;DHT22;36160;53.370;-6.196;2023-01-15T08:07:19;4.40;99.90
35920;DHT22;36160;53.370;-6.196;2023-01-15T08:09:45;4.30;99.90
35920;DHT22;36160;53.370;-6.196;2023-01-15T08:12:11;4.40;99.90
35920;DHT22;36160;53.370;-6.196;2023-01-15T08:14:55;4.30;99.90
35920;DHT22;36160;53.370;-6.196;2023-01-15T08:17:47;4.30;99.90
35920;DHT22;36160;53.370;-6.196;2023-01-15T08:20:18;4.30;99.90
35920;DHT22;36160;53.370;-6.196;2023-01-15T08:22:44;4.40;99.90
35920;DHT22;36160;53.370;-6.196;2023-01-15T08:25:12;4.30;99.90
35920;DHT22;36160;53.370;-6.196;2023-01-15T08:27:38;4.30;99.90
35920;DHT22;36160;53.370;-6.196;2023-01-15T08:30:07;4.30;99.90
35920;DHT22;36160;53.370;-6.196;2023-01-15T08:32:33;4.40;99.90
35920;DHT22;36160;53.370;-6.196;2023-01-15T08:34:59;4.40;99.90
35920;DHT22;36160;53.370;-6.196;2023-01-15T08:37:26;4.50;99.90
35920;DHT22;36160;53.370;-6.196;2023-01-15T08:39:51;4.30;99.90
35920;DHT22;36160;53.370;-6.196;2023-01-15T08:42:21;4.40;99.90
35920;DHT22;36160;53.370;-6.196;2023-01-15T08:44:47;4.30;99.90
35920;DHT22;36160;53.370;-6.196;2023-01-15T08:47:14;4.40;99.90
35920;DHT22;36160;53.370;-6.196;2023-01-15T08:49:40;4.20;99.90
35920;DHT22;36160;53.370;-6.196;2023-01-15T08:52:05;4.20;99.90
35920;DHT22;36160;53.370;-6.196;2023-01-15T08:54:31;4.30;99.90
35920;DHT22;36160;53.370;-6.196;2023-01-15T08:56:58;4.40;99.90
35920;DHT22;36160;53.370;-6.196;2023-01-15T08:59:25;4.20;99.90
35920;DHT22;36160;53.370;-6.196;2023-01-15T09:01:51;4.20;99.90
35920;DHT22;36160;53.370;-6.196;2023-01-15T09:04:18;4.20;99.90
35920;DHT22;36160;53.370;-6.196;2023-01-15T09:06:46;4.20;99.90
35920;DHT22;36160;53.370;-6.196;2023-01-15T09:09:12;4.30;99.90
35920;DHT22;36160;53.370;-6.196;2023-01-15T09:11:38;4.20;99.90
35920;DHT22;36160;53.370;-6.196;2023-01-15T09:14:06;4.30;99.90
35920;DHT22;36160;53.370;-6.196;2023-01-15T09:16:33;4.40;99.90
35920;DHT22;36160;53.370;-6.196;2023-01-15T09:18:58;4.30;99.90
35920;DHT22;36160;53.370;-6.196;2023-01-15T09:21:24;4.30;99.90
35920;DHT22;36160;53.370;-6.196;2023-01-15T09:23:50;4.40;99.90
35920;DHT22;36160;53.370;-6.196;2023-01-15T09:26:34;4.40;99.90
35920;DHT22;36160;53.370;-6.196;2023-01-15T09:29:01;4.30;99.90
35920;DHT22;36160;53.370;-6.196;2023-01-15T09:31:28;4.30;99.90
35920;DHT22;36160;53.370;-6.196;2023-01-15T09:33:54;4.40;99.90
35920;DHT22;36160;53.370;-6.196;2023-01-15T09:36:28;4.40;99.90
35920;DHT22;36160;53.370;-6.196;2023-01-15T09:38:55;4.50;99.90
35920;DHT22;36160;53.370;-6.196;2023-01-15T09:41:22;4.40;99.90
35920;DHT22;36160;53.370;-6.196;2023-01-15T09:44:20;4.50;99.90
35920;DHT22;36160;53.370;-6.196;2023-01-15T09:54:40;4.70;99.90
35920;DHT22;36160;53.370;-6.196;2023-01-15T09:57:15;4.70;99.90
35920;DHT22;36160;53.370;-6.196;2023-01-15T09:59:48;4.70;99.90
35920;DHT22;36160;53.370;-6.196;2023-01-15T10:02:24;4.90;99.90
35920;DHT22;36160;53.370;-6.196;2023-01-15T10:04:56;4.90;99.90
35920;DHT22;36160;53.370;-6.196;2023-01-15T10:07:26;4.90;99.90
35920;DHT22;36160;53.370;-6.196;2023-01-15T10:10:01;4.90;99.90
35920;DHT22;36160;53.370;-6.196;2023-01-15T10:12:29;4.90;99.90
35920;DHT22;36160;53.370;-6.196;2023-01-15T10:17:55;4.90;99.90
35920;DHT22;36160;53.370;-6.196;2023-01-15T10:25:48;5.00;99.90
35920;DHT22;36160;53.370;-6.196;2023-01-15T10:28:27;5.10;99.90
35920;DHT22;36160;53.370;-6.196;2023-01-15T10:30:55;5.20;99.90
35920;DHT22;36160;53.370;-6.196;2023-01-15T10:33:49;5.10;99.90
35920;DHT22;36160;53.370;-6.196;2023-01-15T10:36:23;5.10;99.90
35920;DHT22;36160;53.370;-6.196;2023-01-15T10:44:22;5.10;99.90
35920;DHT22;36160;53.370;-6.196;2023-01-15T10:46:58;5.10;99.90
35920;DHT22;36160;53.370;-6.196;2023-01-15T10:49:28;5.20;99.90
35920;DHT22;36160;53.370;-6.196;2023-01-15T10:52:20;5.20;99.90
35920;DHT22;36160;53.370;-6.196;2023-01-15T10:54:51;5.30;99.90
35920;DHT22;36160;53.370;-6.196;2023-01-15T11:00:15;5.40;99.90
35920;DHT22;36160;53.370;-6.196;2023-01-15T11:02:46;5.50;99.90
35920;DHT22;36160;53.370;-6.196;2023-01-15T11:05:17;5.30;99.90
35920;DHT22;36160;53.370;-6.196;2023-01-15T11:07:53;5.20;99.90
35920;DHT22;36160;53.370;-6.196;2023-01-15T11:10:21;5.20;99.90
35920;DHT22;36160;53.370;-6.196;2023-01-15T11:12:53;5.20;99.90
35920;DHT22;36160;53.370;-6.196;2023-01-15T11:15:38;5.30;99.90
35920;DHT22;36160;53.370;-6.196;2023-01-15T11:18:38;5.30;99.90
35920;DHT22;36160;53.370;-6.196;2023-01-15T11:21:23;5.40;99.90
35920;DHT22;36160;53.370;-6.196;2023-01-15T11:23:50;5.40;99.90
35920;DHT22;36160;53.370;-6.196;2023-01-15T11:26:27;5.50;99.90
35920;DHT22;36160;53.370;-6.196;2023-01-15T11:28:55;5.40;99.90
35920;DHT22;36160;53.370;-6.196;2023-01-15T11:31:21;5.40;99.90
35920;DHT22;36160;53.370;-6.196;2023-01-15T11:33:59;5.50;99.90
35920;DHT22;36160;53.370;-6.196;2023-01-15T11:36:27;5.60;99.90
35920;DHT22;36160;53.370;-6.196;2023-01-15T11:38:53;5.60;99.90
35920;DHT22;36160;53.370;-6.196;2023-01-15T11:41:33;5.60;99.90
35920;DHT22;36160;53.370;-6.196;2023-01-15T11:44:19;5.60;99.90
35920;DHT22;36160;53.370;-6.196;2023-01-15T11:47:10;5.70;99.90
35920;DHT22;36160;53.370;-6.196;2023-01-15T11:49:55;5.70;99.90
35920;DHT22;36160;53.370;-6.196;2023-01-15T11:52:47;5.70;99.90
35920;DHT22;36160;53.370;-6.196;2023-01-15T11:55:20;5.70;99.90
35920;DHT22;36160;53.370;-6.196;2023-01-15T11:57:48;5.80;99.90
35920;DHT22;36160;53.370;-6.196;2023-01-15T12:00:23;5.90;99.90
35920;DHT22;36160;53.370;-6.196;2023-01-15T12:02:53;5.90;99.90
35920;DHT22;36160;53.370;-6.196;2023-01-15T12:05:24;5.80;99.90
35920;DHT22;36160;53.370;-6.196;2023-01-15T12:07:53;5.90;99.90
35920;DHT22;36160;53.370;-6.196;2023-01-15T12:16:51;5.90;99.90
35920;DHT22;36160;53.370;-6.196;2023-01-15T12:20:00;6.00;99.90
35920;DHT22;36160;53.370;-6.196;2023-01-15T12:25:26;6.10;99.90
35920;DHT22;36160;53.370;-6.196;2023-01-15T12:28:01;6.10;99.90
35920;DHT22;36160;53.370;-6.196;2023-01-15T12:33:52;6.20;99.90
35920;DHT22;36160;53.370;-6.196;2023-01-15T12:36:35;6.20;99.90
35920;DHT22;36160;53.370;-6.196;2023-01-15T12:39:48;6.10;99.90
35920;DHT22;36160;53.370;-6.196;2023-01-15T12:42:19;6.20;99.90
35920;DHT22;36160;53.370;-6.196;2023-01-15T12:45:09;6.20;99.90
35920;DHT22;36160;53.370;-6.196;2023-01-15T12:47:54;6.20;99.90
35920;DHT22;36160;53.370;-6.196;2023-01-15T12:53:38;6.10;99.90
35920;DHT22;36160;53.370;-6.196;2023-01-15T12:58:47;6.10;99.90
35920;DHT22;36160;53.370;-6.196;2023-01-15T13:04:46;6.10;99.90
35920;DHT22;36160;53.370;-6.196;2023-01-15T13:10:03;6.10;99.90
35920;DHT22;36160;53.370;-6.196;2023-01-15T13:12:32;6.10;99.90
35920;DHT22;36160;53.370;-6.196;2023-01-15T13:14:58;6.10;99.90
35920;DHT22;36160;53.370;-6.196;2023-01-15T13:20:24;6.20;99.90
35920;DHT22;36160;53.370;-6.196;2023-01-15T13:25:53;6.30;99.90
35920;DHT22;36160;53.370;-6.196;2023-01-15T13:31:43;6.20;99.90
35920;DHT22;36160;53.370;-6.196;2023-01-15T13:36:45;6.30;99.90
35920;DHT22;36160;53.370;-6.196;2023-01-15T13:39:20;6.30;99.90
35920;DHT22;36160;53.370;-6.196;2023-01-15T13:41:51;6.30;99.90
35920;DHT22;36160;53.370;-6.196;2023-01-15T13:44:48;6.30;99.90
35920;DHT22;36160;53.370;-6.196;2023-01-15T13:47:22;6.20;99.90
35920;DHT22;36160;53.370;-6.196;2023-01-15T13:49:56;6.30;99.90
35920;DHT22;36160;53.370;-6.196;2023-01-15T13:52:34;6.30;99.90
35920;DHT22;36160;53.370;-6.196;2023-01-15T13:57:44;6.40;99.90
35920;DHT22;36160;53.370;-6.196;2023-01-15T14:02:56;6.40;99.90
35920;DHT22;36160;53.370;-6.196;2023-01-15T14:07:53;6.40;99.90
35920;DHT22;36160;53.370;-6.196;2023-01-15T14:10:35;6.40;99.90
35920;DHT22;36160;53.370;-6.196;2023-01-15T14:13:08;6.40;99.90
35920;DHT22;36160;53.370;-6.196;2023-01-15T14:22:06;6.40;99.90
35920;DHT22;36160;53.370;-6.196;2023-01-15T14:27:48;6.40;99.90
35920;DHT22;36160;53.370;-6.196;2023-01-15T14:35:52;6.50;99.90
35920;DHT22;36160;53.370;-6.196;2023-01-15T14:38:20;6.50;99.90
35920;DHT22;36160;53.370;-6.196;2023-01-15T14:41:01;6.50;99.90
35920;DHT22;36160;53.370;-6.196;2023-01-15T14:43:31;6.40;99.90
35920;DHT22;36160;53.370;-6.196;2023-01-15T14:48:50;6.40;99.90
35920;DHT22;36160;53.370;-6.196;2023-01-15T14:51:25;6.50;99.90
35920;DHT22;36160;53.370;-6.196;2023-01-15T14:53:54;6.40;99.90
35920;DHT22;36160;53.370;-6.196;2023-01-15T14:56:32;6.30;99.90
35920;DHT22;36160;53.370;-6.196;2023-01-15T15:01:36;6.30;99.90
35920;DHT22;36160;53.370;-6.196;2023-01-15T15:06:57;6.20;99.90
35920;DHT22;36160;53.370;-6.196;2023-01-15T15:21:21;6.10;99.90
35920;DHT22;36160;53.370;-6.196;2023-01-15T15:26:26;6.00;99.90
35920;DHT22;36160;53.370;-6.196;2023-01-15T15:29:05;5.90;99.90
35920;DHT22;36160;53.370;-6.196;2023-01-15T15:31:35;5.90;99.90
35920;DHT22;36160;53.370;-6.196;2023-01-15T15:34:01;6.00;99.90
35920;DHT22;36160;53.370;-6.196;2023-01-15T15:36:30;5.90;99.90
35920;DHT22;36160;53.370;-6.196;2023-01-15T15:38:59;5.90;99.90
35920;DHT22;36160;53.370;-6.196;2023-01-15T15:41:30;5.90;99.90
35920;DHT22;36160;53.370;-6.196;2023-01-15T15:47:19;5.80;99.90
35920;DHT22;36160;53.370;-6.196;2023-01-15T15:50:03;5.80;99.90
35920;DHT22;36160;53.370;-6.196;2023-01-15T15:52:29;5.80;99.90
35920;DHT22;36160;53.370;-6.196;2023-01-15T15:54:59;5.70;99.90
35920;DHT22;36160;53.370;-6.196;2023-01-15T15:57:28;5.60;99.90
35920;DHT22;36160;53.370;-6.196;2023-01-15T15:59:55;5.70;99.90
35920;DHT22;36160;53.370;-6.196;2023-01-15T16:02:29;5.70;99.90
35920;DHT22;36160;53.370;-6.196;2023-01-15T16:05:00;5.70;99.90
35920;DHT22;36160;53.370;-6.196;2023-01-15T16:07:32;5.70;99.90
35920;DHT22;36160;53.370;-6.196;2023-01-15T16:12:33;5.60;99.90
35920;DHT22;36160;53.370;-6.196;2023-01-15T16:15:01;5.70;99.90
35920;DHT22;36160;53.370;-6.196;2023-01-15T16:17:27;5.50;99.90
35920;DHT22;36160;53.370;-6.196;2023-01-15T16:19:55;5.50;99.90
35920;DHT22;36160;53.370;-6.196;2023-01-15T16:22:21;5.40;99.90
35920;DHT22;36160;53.370;-6.196;2023-01-15T16:24:57;5.40;99.90
35920;DHT22;36160;53.370;-6.196;2023-01-15T16:27:30;5.40;99.90
35920;DHT22;36160;53.370;-6.196;2023-01-15T16:30:01;5.30;99.90
35920;DHT22;36160;53.370;-6.196;2023-01-15T16:32:29;5.30;99.90
35920;DHT22;36160;53.370;-6.196;2023-01-15T16:35:15;5.20;99.90
35920;DHT22;36160;53.370;-6.196;2023-01-15T16:37:41;5.20;99.90
35920;DHT22;36160;53.370;-6.196;2023-01-15T16:40:14;5.20;99.90
35920;DHT22;36160;53.370;-6.196;2023-01-15T16:42:40;5.20;99.90
35920;DHT22;36160;53.370;-6.196;2023-01-15T16:45:23;5.30;99.90
35920;DHT22;36160;53.370;-6.196;2023-01-15T16:51:31;5.10;99.90
35920;DHT22;36160;53.370;-6.196;2023-01-15T16:54:02;5.10;99.90
35920;DHT22;36160;53.370;-6.196;2023-01-15T16:59:02;5.20;99.90
35920;DHT22;36160;53.370;-6.196;2023-01-15T17:01:37;5.10;99.90
35920;DHT22;36160;53.370;-6.196;2023-01-15T17:04:32;5.20;99.90
35920;DHT22;36160;53.370;-6.196;2023-01-15T17:09:49;5.20;99.90
35920;DHT22;36160;53.370;-6.196;2023-01-15T17:12:30;5.20;99.90
35920;DHT22;36160;53.370;-6.196;2023-01-15T17:18:00;5.10;99.90
35920;DHT22;36160;53.370;-6.196;2023-01-15T17:20:45;5.00;99.90
35920;DHT22;36160;53.370;-6.196;2023-01-15T17:23:12;5.00;99.90
35920;DHT22;36160;53.370;-6.196;2023-01-15T17:25:41;4.90;99.90
35920;DHT22;36160;53.370;-6.196;2023-01-15T17:28:08;5.00;99.90
35920;DHT22;36160;53.370;-6.196;2023-01-15T17:30:37;5.00;99.90
35920;DHT22;36160;53.370;-6.196;2023-01-15T17:33:04;5.00;99.90
35920;DHT22;36160;53.370;-6.196;2023-01-15T17:35:35;5.10;99.90
35920;DHT22;36160;53.370;-6.196;2023-01-15T17:38:01;5.10;99.90
35920;DHT22;36160;53.370;-6.196;2023-01-15T17:40:27;5.10;99.90
35920;DHT22;36160;53.370;-6.196;2023-01-15T17:42:55;5.20;99.90
35920;DHT22;36160;53.370;-6.196;2023-01-15T17:45:31;5.20;99.90
35920;DHT22;36160;53.370;-6.196;2023-01-15T17:47:58;5.20;99.90
35920;DHT22;36160;53.370;-6.196;2023-01-15T17:50:26;5.20;99.90
35920;DHT22;36160;53.370;-6.196;2023-01-15T17:52:54;5.40;99.90
35920;DHT22;36160;53.370;-6.196;2023-01-15T17:55:22;5.30;99.90
35920;DHT22;36160;53.370;-6.196;2023-01-15T17:58:11;5.30;99.90
35920;DHT22;36160;53.370;-6.196;2023-01-15T18:00:55;5.40;99.90
35920;DHT22;36160;53.370;-6.196;2023-01-15T18:03:47;5.40;99.90
35920;DHT22;36160;53.370;-6.196;2023-01-15T18:06:32;5.40;99.90
35920;DHT22;36160;53.370;-6.196;2023-01-15T18:09:00;5.40;99.90
35920;DHT22;36160;53.370;-6.196;2023-01-15T18:11:27;5.40;99.90
35920;DHT22;36160;53.370;-6.196;2023-01-15T18:13:53;5.50;99.90
35920;DHT22;36160;53.370;-6.196;2023-01-15T18:16:20;5.40;99.90
35920;DHT22;36160;53.370;-6.196;2023-01-15T18:18:46;5.40;99.90
35920;DHT22;36160;53.370;-6.196;2023-01-15T18:21:12;5.40;99.90
35920;DHT22;36160;53.370;-6.196;2023-01-15T18:23:37;5.40;99.90